createdAt,value
2022-08-20T00:00:18.888Z,22.20
2022-08-20T00:02:50.724Z,22.10
2022-08-20T00:05:41.120Z,22.10
2022-08-20T00:08:08.553Z,22.10
2022-08-20T00:10:37.590Z,22.00
2022-08-20T00:13:07.813Z,21.90
2022-08-20T00:15:35.385Z,21.90
2022-08-20T00:18:03.052Z,21.80
2022-08-20T00:20:40.291Z,21.80
2022-08-20T00:23:10.471Z,21.70
2022-08-20T00:25:38.060Z,21.70
2022-08-20T00:28:07.134Z,21.70
2022-08-20T00:30:35.730Z,21.60
2022-08-20T00:33:15.967Z,21.60
2022-08-20T00:35:44.741Z,21.60
2022-08-20T00:38:11.891Z,21.60
2022-08-20T00:40:43.844Z,21.60
2022-08-20T00:43:29.599Z,21.60
2022-08-20T00:45:58.086Z,21.50
2022-08-20T00:48:28.044Z,21.50
2022-08-20T00:51:01.367Z,21.40
2022-08-20T00:53:29.302Z,21.40
2022-08-20T00:55:56.482Z,21.40
2022-08-20T00:58:23.532Z,21.30
2022-08-20T01:00:51.652Z,21.30
2022-08-20T01:03:20.533Z,21.30
2022-08-20T01:05:50.438Z,21.30
2022-08-20T01:08:20.149Z,21.20
2022-08-20T01:10:49.987Z,21.20
2022-08-20T01:13:23.961Z,21.20
2022-08-20T01:15:54.623Z,21.10
2022-08-20T01:18:25.061Z,21.10
2022-08-20T01:20:54.419Z,21.00
2022-08-20T01:23:42.519Z,21.00
2022-08-20T01:26:25.559Z,20.90
2022-08-20T01:29:08.153Z,20.90
2022-08-20T01:31:38.027Z,20.90
2022-08-20T01:34:09.479Z,20.80
2022-08-20T01:37:04.869Z,20.80
2022-08-20T01:39:35.135Z,20.80
2022-08-20T01:42:01.941Z,20.80
2022-08-20T01:44:29.788Z,20.70
2022-08-20T01:47:15.164Z,20.70
2022-08-20T01:49:46.592Z,20.70
2022-08-20T01:52:24.428Z,20.70
2022-08-20T01:54:52.291Z,20.70
2022-08-20T01:57:20.817Z,20.70
2022-08-20T01:59:50.366Z,20.60
2022-08-20T02:02:17.326Z,20.60
2022-08-20T02:04:44.428Z,20.60
2022-08-20T02:07:21.617Z,20.60
2022-08-20T02:09:49.916Z,20.60
2022-08-20T02:12:17.469Z,20.60
2022-08-20T02:14:52.451Z,20.60
2022-08-20T02:17:22.857Z,20.50
2022-08-20T02:19:57.622Z,20.50
2022-08-20T02:22:34.652Z,20.50
2022-08-20T02:25:02.298Z,20.50
2022-08-20T02:27:29.199Z,20.50
2022-08-20T02:29:57.110Z,20.40
2022-08-20T02:32:33.431Z,20.40
2022-08-20T02:35:03.497Z,20.40
2022-08-20T02:37:31.364Z,20.40
2022-08-20T02:39:58.601Z,20.40
2022-08-20T02:42:26.500Z,20.40
2022-08-20T02:44:54.382Z,20.40
2022-08-20T02:47:21.353Z,20.40
2022-08-20T02:49:48.220Z,20.40
2022-08-20T02:52:15.148Z,20.40
2022-08-20T02:54:41.987Z,20.40
2022-08-20T02:57:13.591Z,20.40
2022-08-20T02:59:40.673Z,20.40
2022-08-20T03:02:07.547Z,20.40
2022-08-20T03:04:34.418Z,20.40
2022-08-20T03:07:01.438Z,20.40
2022-08-20T03:09:28.338Z,20.40
2022-08-20T03:11:55.273Z,20.40
2022-08-20T03:14:22.290Z,20.40
2022-08-20T03:16:49.731Z,20.40
2022-08-20T03:19:16.715Z,20.40
2022-08-20T03:21:43.597Z,20.40
2022-08-20T03:24:10.513Z,20.40
2022-08-20T03:26:37.529Z,20.40
2022-08-20T03:29:04.642Z,20.40
2022-08-20T03:31:31.552Z,20.40
2022-08-20T03:33:58.484Z,20.40
2022-08-20T03:36:28.354Z,20.50
2022-08-20T03:38:58.260Z,20.50
2022-08-20T03:41:25.449Z,20.50
2022-08-20T03:43:52.528Z,20.40
2022-08-20T03:46:22.189Z,20.50
2022-08-20T03:48:50.682Z,20.50
2022-08-20T03:51:26.857Z,20.50
2022-08-20T03:53:53.724Z,20.50
2022-08-20T03:56:20.600Z,20.60
2022-08-20T03:58:47.721Z,20.60
2022-08-20T04:01:37.155Z,20.60
2022-08-20T04:04:02.119Z,20.60
2022-08-20T04:06:30.397Z,20.60
2022-08-20T04:08:57.448Z,20.60
2022-08-20T04:11:24.436Z,20.60
2022-08-20T04:13:51.742Z,20.60
2022-08-20T04:16:19.368Z,20.60
2022-08-20T04:19:01.544Z,20.60
2022-08-20T04:21:32.684Z,20.60
2022-08-20T04:24:00.980Z,20.60
2022-08-20T04:26:28.007Z,20.60
2022-08-20T04:28:55.705Z,20.60
2022-08-20T04:31:32.631Z,20.60
2022-08-20T04:34:01.912Z,20.60
2022-08-20T04:36:29.468Z,20.60
2022-08-20T04:38:56.578Z,20.60
2022-08-20T04:41:24.401Z,20.60
2022-08-20T04:43:54.033Z,20.70
2022-08-20T04:46:25.528Z,20.60
2022-08-20T04:48:52.993Z,20.70
2022-08-20T04:51:24.307Z,20.70
2022-08-20T04:53:53.658Z,20.70
2022-08-20T04:56:32.529Z,20.70
2022-08-20T04:59:01.459Z,20.70
2022-08-20T05:01:28.459Z,20.70
2022-08-20T05:03:56.298Z,20.70
2022-08-20T05:06:28.578Z,20.80
2022-08-20T05:08:58.181Z,20.80
2022-08-20T05:11:35.287Z,20.80
2022-08-20T05:14:06.029Z,20.90
2022-08-20T05:16:38.151Z,20.90
2022-08-20T05:19:06.050Z,21.00
2022-08-20T05:21:32.916Z,21.00
2022-08-20T05:24:00.377Z,21.00
2022-08-20T05:26:27.357Z,21.10
2022-08-20T05:28:59.101Z,21.20
2022-08-20T05:31:32.294Z,21.20
2022-08-20T05:34:10.795Z,21.20
2022-08-20T05:36:44.730Z,21.30
2022-08-20T05:39:13.373Z,21.30
2022-08-20T05:41:40.831Z,21.30
2022-08-20T05:44:10.942Z,21.30
2022-08-20T05:46:40.915Z,21.40
2022-08-20T05:49:14.022Z,21.40
2022-08-20T05:51:41.116Z,21.40
2022-08-20T05:54:08.223Z,21.50
2022-08-20T05:56:36.014Z,21.50
2022-08-20T05:59:05.755Z,21.60
2022-08-20T06:01:34.498Z,21.60
2022-08-20T06:04:20.237Z,21.70
2022-08-20T06:06:48.522Z,21.70
2022-08-20T06:09:30.936Z,21.80
2022-08-20T06:12:01.123Z,21.80
2022-08-20T06:14:28.141Z,21.90
2022-08-20T06:16:57.600Z,22.00
2022-08-20T06:19:26.947Z,22.00
2022-08-20T06:21:54.702Z,22.00
2022-08-20T06:24:21.669Z,22.10
2022-08-20T06:26:54.740Z,22.10
2022-08-20T06:29:21.583Z,22.20
2022-08-20T06:31:48.429Z,22.20
2022-08-20T06:34:15.418Z,22.30
2022-08-20T06:36:42.295Z,22.30
2022-08-20T06:39:09.166Z,22.40
2022-08-20T06:41:37.070Z,22.40
2022-08-20T06:44:05.352Z,22.40
2022-08-20T06:46:33.096Z,22.50
2022-08-20T06:49:00.193Z,22.40
2022-08-20T06:51:27.176Z,22.40
2022-08-20T06:53:54.057Z,22.40
2022-08-20T06:56:21.315Z,22.40
2022-08-20T06:58:49.522Z,22.40
2022-08-20T07:01:21.143Z,22.50
2022-08-20T07:03:54.872Z,22.50
2022-08-20T07:06:25.015Z,22.50
2022-08-20T07:08:51.956Z,22.60
2022-08-20T07:11:23.740Z,22.60
2022-08-20T07:13:54.375Z,22.60
2022-08-20T07:16:21.263Z,22.70
2022-08-20T07:18:48.292Z,22.70
2022-08-20T07:21:17.307Z,22.80
2022-08-20T07:23:44.250Z,22.80
2022-08-20T07:26:11.332Z,22.90
2022-08-20T07:28:38.198Z,22.90
2022-08-20T07:31:23.503Z,23.00
2022-08-20T07:33:50.652Z,23.00
2022-08-20T07:36:17.983Z,23.10
2022-08-20T07:38:51.088Z,23.20
2022-08-20T07:41:19.267Z,23.20
2022-08-20T07:43:46.877Z,23.20
2022-08-20T07:46:16.120Z,23.20
2022-08-20T07:48:49.560Z,23.30
2022-08-20T07:51:19.172Z,23.30
2022-08-20T07:53:47.488Z,23.40
2022-08-20T07:56:19.254Z,23.30
2022-08-20T07:58:50.572Z,23.30
2022-08-20T08:01:26.680Z,23.40
2022-08-20T08:03:53.932Z,23.40
2022-08-20T08:06:29.793Z,23.40
2022-08-20T08:09:13.351Z,23.40
2022-08-20T08:11:47.469Z,23.60
2022-08-20T08:14:23.325Z,23.70
2022-08-20T08:16:50.923Z,23.70
2022-08-20T08:19:18.573Z,23.70
2022-08-20T08:21:45.858Z,23.80
2022-08-20T08:24:18.040Z,23.80
2022-08-20T08:26:50.063Z,23.80
2022-08-20T08:29:17.327Z,23.70
2022-08-20T08:31:44.615Z,23.80
2022-08-20T08:34:12.994Z,23.80
2022-08-20T08:36:40.699Z,23.80
2022-08-20T08:39:07.827Z,23.80
2022-08-20T08:41:47.350Z,23.80
2022-08-20T08:44:27.263Z,23.90
2022-08-20T08:46:58.221Z,24.00
2022-08-20T08:49:37.556Z,24.00
2022-08-20T08:52:29.975Z,24.00
2022-08-20T08:55:02.084Z,24.00
2022-08-20T08:57:29.085Z,24.30
2022-08-20T09:00:14.372Z,24.30
2022-08-20T09:03:02.472Z,24.40
2022-08-20T09:05:52.264Z,24.40
2022-08-20T09:08:27.336Z,24.40
2022-08-20T09:10:54.439Z,24.40
2022-08-20T09:13:21.457Z,24.40
2022-08-20T09:15:48.356Z,24.40
2022-08-20T09:18:15.176Z,24.40
2022-08-20T09:20:42.103Z,24.60
2022-08-20T09:23:09.039Z,24.80
2022-08-20T09:25:36.026Z,24.90
2022-08-20T09:28:03.051Z,25.00
2022-08-20T09:30:30.779Z,25.20
2022-08-20T09:33:01.975Z,25.20
2022-08-20T09:35:29.747Z,25.30
2022-08-20T09:37:56.825Z,25.30
2022-08-20T09:40:23.826Z,25.40
2022-08-20T09:42:51.405Z,25.30
2022-08-20T09:45:19.451Z,25.30
2022-08-20T09:47:56.063Z,25.30
2022-08-20T09:50:29.396Z,25.20
2022-08-20T09:52:58.331Z,25.40
2022-08-20T09:55:43.356Z,25.50
2022-08-20T09:58:34.930Z,25.40
2022-08-20T10:01:15.062Z,25.30
2022-08-20T10:03:43.322Z,25.20
2022-08-20T10:06:11.420Z,25.10
2022-08-20T10:08:38.916Z,25.10
2022-08-20T10:11:06.021Z,25.30
2022-08-20T10:13:33.015Z,25.30
2022-08-20T10:15:59.942Z,25.40
2022-08-20T10:18:26.899Z,25.50
2022-08-20T10:20:53.749Z,25.80
2022-08-20T10:23:20.659Z,25.90
2022-08-20T10:25:47.555Z,25.80
2022-08-20T10:28:14.544Z,25.90
2022-08-20T10:30:41.467Z,25.80
2022-08-20T10:33:08.319Z,25.70
2022-08-20T10:35:35.189Z,25.70
2022-08-20T10:38:02.172Z,25.70
2022-08-20T10:40:29.271Z,25.70
2022-08-20T10:42:56.145Z,25.60
2022-08-20T10:45:25.254Z,25.50
2022-08-20T10:47:52.138Z,25.40
2022-08-20T10:50:20.120Z,25.50
2022-08-20T10:52:47.641Z,25.70
2022-08-20T10:55:14.674Z,25.80
2022-08-20T10:57:43.357Z,25.80
2022-08-20T11:00:13.897Z,25.70
2022-08-20T11:02:40.767Z,25.70
2022-08-20T11:05:08.442Z,25.60
2022-08-20T11:07:49.978Z,25.30
2022-08-20T11:10:28.283Z,25.10
2022-08-20T11:12:55.323Z,24.80
2022-08-20T11:15:22.450Z,24.50
2022-08-20T11:17:49.497Z,24.50
2022-08-20T11:20:19.665Z,24.40
2022-08-20T11:22:46.636Z,24.40
2022-08-20T11:25:13.790Z,24.30
2022-08-20T11:27:44.332Z,24.30
2022-08-20T11:30:14.419Z,24.40
2022-08-20T11:32:41.988Z,24.40
2022-08-20T11:35:38.392Z,24.40
2022-08-20T11:37:58.483Z,24.30
2022-08-20T11:40:26.710Z,24.40
2022-08-20T11:43:13.559Z,24.40
2022-08-20T11:45:40.970Z,24.50
2022-08-20T11:48:07.868Z,24.30
2022-08-20T11:50:34.800Z,24.30
2022-08-20T11:53:01.865Z,24.30
2022-08-20T11:55:30.396Z,24.40
2022-08-20T11:57:59.659Z,24.40
2022-08-20T12:00:32.127Z,24.30
2022-08-20T12:03:09.072Z,24.20
2022-08-20T12:05:38.497Z,24.20
2022-08-20T12:08:05.937Z,24.20
2022-08-20T12:10:33.413Z,24.30
2022-08-20T12:13:02.535Z,24.30
2022-08-20T12:15:31.632Z,24.40
2022-08-20T12:17:58.530Z,24.30
2022-08-20T12:20:25.579Z,24.40
2022-08-20T12:22:54.004Z,24.50
2022-08-20T12:25:21.183Z,24.70
2022-08-20T12:27:48.233Z,24.80
2022-08-20T12:30:19.873Z,24.80
2022-08-20T12:32:47.317Z,24.80
2022-08-20T12:35:16.102Z,24.70
2022-08-20T12:37:44.169Z,24.80
2022-08-20T12:40:32.671Z,24.70
2022-08-20T12:43:01.795Z,24.60
2022-08-20T12:45:29.086Z,24.60
2022-08-20T12:48:02.197Z,24.40
2022-08-20T12:50:31.862Z,24.40
2022-08-20T12:52:59.310Z,24.40
2022-08-20T12:55:26.704Z,24.30
2022-08-20T12:57:57.092Z,24.20
2022-08-20T13:00:28.440Z,24.00
2022-08-20T13:02:58.519Z,24.00
2022-08-20T13:05:26.000Z,24.00
2022-08-20T13:07:53.281Z,24.10
2022-08-20T13:10:26.841Z,24.30
2022-08-20T13:12:53.930Z,24.30
2022-08-20T13:15:21.980Z,24.60
2022-08-20T13:17:54.853Z,24.90
2022-08-20T13:20:25.555Z,25.10
2022-08-20T13:22:58.579Z,25.30
2022-08-20T13:25:26.198Z,25.40
2022-08-20T13:27:58.124Z,25.20
2022-08-20T13:30:25.447Z,25.20
2022-08-20T13:32:52.572Z,25.20
2022-08-20T13:35:20.130Z,25.10
2022-08-20T13:37:49.337Z,25.10
2022-08-20T13:40:17.624Z,25.10
2022-08-20T13:42:44.583Z,25.20
2022-08-20T13:45:11.777Z,25.30
2022-08-20T13:47:40.789Z,25.30
2022-08-20T13:50:16.646Z,25.10
2022-08-20T13:52:44.630Z,24.80
2022-08-20T13:55:16.367Z,24.70
2022-08-20T13:57:44.271Z,24.80
2022-08-20T14:00:15.511Z,24.90
2022-08-20T14:02:43.344Z,24.90
2022-08-20T14:05:11.202Z,25.00
2022-08-20T14:07:41.533Z,25.00
2022-08-20T14:10:22.376Z,25.00
2022-08-20T14:12:49.239Z,25.10
2022-08-20T14:15:16.782Z,25.00
2022-08-20T14:17:50.789Z,25.00
2022-08-20T14:20:20.358Z,24.90
2022-08-20T14:22:47.333Z,24.90
2022-08-20T14:25:16.772Z,24.80
2022-08-20T14:27:43.716Z,24.90
2022-08-20T14:30:16.507Z,25.20
2022-08-20T14:32:43.557Z,25.40
2022-08-20T14:35:11.194Z,25.70
2022-08-20T14:37:41.306Z,25.90
2022-08-20T14:40:09.547Z,26.10
2022-08-20T14:42:36.591Z,26.30
2022-08-20T14:45:06.377Z,26.10
2022-08-20T14:47:39.010Z,26.10
2022-08-20T14:50:23.450Z,25.90
2022-08-20T14:52:50.463Z,25.70
2022-08-20T14:55:20.328Z,25.30
2022-08-20T14:57:47.663Z,25.10
2022-08-20T15:00:18.287Z,24.80
2022-08-20T15:02:46.504Z,24.70
2022-08-20T15:05:14.171Z,24.60
2022-08-20T15:07:44.111Z,24.50
2022-08-20T15:10:18.046Z,24.40
2022-08-20T15:12:45.246Z,24.30
2022-08-20T15:15:15.954Z,24.20
2022-08-20T15:17:48.759Z,24.10
2022-08-20T15:20:20.947Z,24.10
2022-08-20T15:22:49.125Z,24.00
2022-08-20T15:25:18.184Z,23.90
2022-08-20T15:27:45.242Z,23.90
2022-08-20T15:30:16.460Z,23.80
2022-08-20T15:32:43.713Z,23.70
2022-08-20T15:35:11.494Z,23.70
2022-08-20T15:37:47.216Z,23.60
2022-08-20T15:40:22.555Z,23.50
2022-08-20T15:42:52.785Z,23.50
2022-08-20T15:45:21.647Z,23.50
2022-08-20T15:47:55.458Z,23.50
2022-08-20T15:51:00.343Z,23.60
2022-08-20T15:53:33.374Z,23.50
2022-08-20T15:56:25.138Z,23.50
2022-08-20T15:59:12.685Z,23.40
2022-08-20T16:02:04.741Z,23.40
2022-08-20T16:04:37.356Z,23.40
2022-08-20T16:07:13.043Z,23.30
2022-08-20T16:09:49.061Z,23.30
2022-08-20T16:12:36.851Z,23.40
2022-08-20T16:15:12.538Z,23.40
2022-08-20T16:18:24.314Z,23.40
2022-08-20T16:20:54.170Z,23.30
2022-08-20T16:23:31.152Z,23.30
2022-08-20T16:26:25.272Z,23.30
2022-08-20T16:28:52.074Z,23.30
2022-08-20T16:31:23.552Z,23.30
2022-08-20T16:34:32.195Z,23.30
2022-08-20T16:37:38.369Z,23.30
2022-08-20T16:40:33.946Z,23.30
2022-08-20T16:43:04.269Z,23.20
2022-08-20T16:45:50.885Z,23.20
2022-08-20T16:48:19.127Z,23.10
2022-08-20T16:50:58.792Z,23.10
2022-08-20T16:53:26.562Z,23.20
2022-08-20T16:55:55.246Z,23.10
2022-08-20T16:58:22.153Z,23.10
2022-08-20T17:01:09.196Z,23.00
2022-08-20T17:03:40.317Z,22.90
2022-08-20T17:06:30.681Z,22.80
2022-08-20T17:08:57.781Z,22.80
2022-08-20T17:11:31.939Z,22.70
2022-08-20T17:14:15.319Z,22.60
2022-08-20T17:16:46.624Z,22.60
2022-08-20T17:19:29.142Z,22.50
2022-08-20T17:21:57.201Z,22.50
2022-08-20T17:24:31.366Z,22.50
2022-08-20T17:27:04.558Z,22.40
2022-08-20T17:29:52.740Z,22.40
2022-08-20T17:32:28.966Z,22.30
2022-08-20T17:34:59.497Z,22.30
2022-08-20T17:37:40.744Z,22.30
2022-08-20T17:40:18.134Z,22.20
2022-08-20T17:42:59.259Z,22.20
2022-08-20T17:45:27.771Z,22.20
2022-08-20T17:47:59.533Z,22.20
2022-08-20T17:50:33.885Z,22.20
2022-08-20T17:53:24.057Z,22.20
2022-08-20T17:56:22.601Z,22.10
2022-08-20T17:59:23.899Z,22.10
2022-08-20T18:02:00.690Z,22.00
2022-08-20T18:04:30.095Z,22.00
2022-08-20T18:07:11.846Z,22.00
2022-08-20T18:09:53.599Z,22.00
2022-08-20T18:12:34.649Z,22.00
2022-08-20T18:15:15.316Z,21.90
2022-08-20T18:18:16.790Z,21.90
2022-08-20T18:20:49.685Z,21.90
2022-08-20T18:23:29.914Z,21.90
2022-08-20T18:26:05.490Z,21.80
2022-08-20T18:29:01.279Z,21.80
2022-08-20T18:31:40.768Z,21.80
2022-08-20T18:34:35.192Z,21.80
2022-08-20T18:37:27.590Z,21.80
2022-08-20T18:40:07.896Z,21.70
2022-08-20T18:42:36.505Z,21.70
2022-08-20T18:45:04.486Z,21.70
2022-08-20T18:47:34.332Z,21.60
2022-08-20T18:50:19.165Z,21.60
2022-08-20T18:52:52.083Z,21.60
2022-08-20T18:55:32.511Z,21.70
2022-08-20T18:58:02.364Z,21.70
2022-08-20T19:00:41.863Z,21.60
2022-08-20T19:03:08.724Z,21.60
2022-08-20T19:06:06.334Z,21.60
2022-08-20T19:08:43.027Z,21.60
2022-08-20T19:11:18.120Z,21.60
2022-08-20T19:14:13.870Z,21.60
2022-08-20T19:16:55.896Z,21.60
2022-08-20T19:19:24.500Z,21.60
2022-08-20T19:21:51.957Z,21.60
2022-08-20T19:24:31.302Z,21.50
2022-08-20T19:27:07.388Z,21.50
2022-08-20T19:29:42.274Z,21.50
2022-08-20T19:32:16.511Z,21.50
2022-08-20T19:34:58.020Z,21.50
2022-08-20T19:37:50.687Z,21.50
2022-08-20T19:40:38.972Z,21.50
2022-08-20T19:43:14.938Z,21.50
2022-08-20T19:45:54.347Z,21.40
2022-08-20T19:48:41.460Z,21.50
2022-08-20T19:51:26.278Z,21.40
2022-08-20T19:53:53.365Z,21.40
2022-08-20T19:56:23.831Z,21.40
2022-08-20T19:59:07.239Z,21.40
2022-08-20T20:01:34.434Z,21.30
2022-08-20T20:04:04.858Z,21.30
2022-08-20T20:06:34.901Z,21.30
2022-08-20T20:09:07.134Z,21.30
2022-08-20T20:11:42.229Z,21.30
2022-08-20T20:14:12.894Z,21.20
2022-08-20T20:16:41.391Z,21.30
2022-08-20T20:19:26.343Z,21.20
2022-08-20T20:22:24.747Z,21.20
2022-08-20T20:25:13.550Z,21.20
2022-08-20T20:27:45.410Z,21.20
2022-08-20T20:30:13.848Z,21.10
2022-08-20T20:32:47.630Z,21.20
2022-08-20T20:35:28.650Z,21.20
2022-08-20T20:38:06.894Z,21.10
2022-08-20T20:40:45.677Z,21.20
2022-08-20T20:43:24.530Z,21.10
2022-08-20T20:46:02.676Z,21.10
2022-08-20T20:48:39.928Z,21.10
2022-08-20T20:51:22.406Z,21.10
2022-08-20T20:53:54.725Z,21.10
2022-08-20T20:56:42.946Z,21.10
2022-08-20T20:59:11.040Z,21.10
2022-08-20T21:01:47.969Z,21.10
2022-08-20T21:04:19.683Z,21.10
2022-08-20T21:06:46.639Z,21.10
2022-08-20T21:09:13.847Z,21.10
2022-08-20T21:11:40.678Z,21.10
2022-08-20T21:14:07.567Z,21.20
2022-08-20T21:16:34.506Z,21.20
2022-08-20T21:19:04.618Z,21.20
2022-08-20T21:21:31.513Z,21.20
2022-08-20T21:23:58.380Z,21.20
2022-08-20T21:26:27.805Z,21.20
2022-08-20T21:28:54.793Z,21.20
2022-08-20T21:31:30.765Z,21.10
2022-08-20T21:33:57.693Z,21.10
2022-08-20T21:36:24.577Z,21.20
2022-08-20T21:38:51.445Z,21.20
2022-08-20T21:41:18.994Z,21.20
2022-08-20T21:43:57.402Z,21.20
2022-08-20T21:46:25.229Z,21.10
2022-08-20T21:48:52.081Z,21.10
2022-08-20T21:51:18.964Z,21.10
2022-08-20T21:53:45.878Z,21.10
2022-08-20T21:56:12.757Z,21.10
2022-08-20T21:58:40.202Z,21.10
2022-08-20T22:01:14.743Z,21.10
2022-08-20T22:03:42.821Z,21.00
2022-08-20T22:06:12.414Z,21.00
2022-08-20T22:08:39.452Z,21.00
2022-08-20T22:11:08.846Z,21.00
2022-08-20T22:13:36.251Z,21.10
2022-08-20T22:16:06.616Z,21.10
2022-08-20T22:18:34.041Z,21.10
2022-08-20T22:21:01.752Z,21.10
2022-08-20T22:23:28.696Z,21.10
2022-08-20T22:25:55.552Z,21.10
2022-08-20T22:28:23.222Z,21.10
2022-08-20T22:30:50.352Z,21.00
2022-08-20T22:33:22.175Z,21.00
2022-08-20T22:35:52.743Z,21.00
2022-08-20T22:38:20.585Z,21.00
2022-08-20T22:40:48.167Z,21.00
2022-08-20T22:43:16.005Z,21.10
2022-08-20T22:45:45.646Z,21.10
2022-08-20T22:48:15.918Z,21.10
2022-08-20T22:50:42.818Z,21.00
2022-08-20T22:53:10.600Z,21.00
2022-08-20T22:55:38.546Z,21.00
2022-08-20T22:58:06.342Z,21.00
2022-08-20T23:00:34.624Z,20.90
2022-08-20T23:03:02.622Z,20.90
2022-08-20T23:05:32.707Z,20.80
2022-08-20T23:08:00.914Z,20.50
2022-08-20T23:10:29.735Z,20.40
2022-08-20T23:12:57.465Z,20.20
2022-08-20T23:15:26.034Z,20.10
2022-08-20T23:18:00.489Z,19.90
2022-08-20T23:20:27.571Z,19.70
2022-08-20T23:22:54.817Z,19.50
2022-08-20T23:25:21.914Z,19.50
2022-08-20T23:27:50.691Z,19.40
2022-08-20T23:30:20.072Z,19.40
2022-08-20T23:32:47.249Z,19.30
2022-08-20T23:35:14.383Z,19.20
2022-08-20T23:37:45.701Z,19.10
2022-08-20T23:40:14.036Z,19.00
2022-08-20T23:42:41.047Z,19.00
2022-08-20T23:45:08.783Z,19.00
2022-08-20T23:47:36.208Z,18.90
2022-08-20T23:50:08.370Z,18.90
2022-08-20T23:52:35.251Z,18.90
2022-08-20T23:55:02.270Z,18.90
2022-08-20T23:57:29.229Z,18.80
2022-08-20T23:59:56.148Z,18.80
